sensor_id;sensor_type;location;lat;lon;timestamp;P1;durP1;ratioP1;P2;durP2;ratioP2
30185;SDS011;31152;49.190;8.122;2022-08-19T00:01:45;25.80;;;19.83;;
30185;SDS011;31152;49.190;8.122;2022-08-19T00:04:20;27.27;;;18.95;;
30185;SDS011;31152;49.190;8.122;2022-08-19T00:06:49;25.40;;;20.05;;
30185;SDS011;31152;49.190;8.122;2022-08-19T00:09:17;25.50;;;19.10;;
30185;SDS011;31152;49.190;8.122;2022-08-19T00:11:45;24.38;;;19.13;;
30185;SDS011;31152;49.190;8.122;2022-08-19T00:14:13;23.25;;;18.23;;
30185;SDS011;31152;49.190;8.122;2022-08-19T00:16:42;25.75;;;19.02;;
30185;SDS011;31152;49.190;8.122;2022-08-19T00:19:13;26.23;;;19.60;;
30185;SDS011;31152;49.190;8.122;2022-08-19T00:21:41;24.50;;;19.15;;
30185;SDS011;31152;49.190;8.122;2022-08-19T00:24:10;22.55;;;18.75;;
30185;SDS011;31152;49.190;8.122;2022-08-19T00:26:38;26.42;;;20.00;;
30185;SDS011;31152;49.190;8.122;2022-08-19T00:29:06;27.50;;;20.52;;
30185;SDS011;31152;49.190;8.122;2022-08-19T00:31:34;24.30;;;19.55;;
30185;SDS011;31152;49.190;8.122;2022-08-19T00:34:01;24.38;;;19.17;;
30185;SDS011;31152;49.190;8.122;2022-08-19T00:36:28;27.42;;;20.50;;
30185;SDS011;31152;49.190;8.122;2022-08-19T00:38:56;27.30;;;20.45;;
30185;SDS011;31152;49.190;8.122;2022-08-19T00:41:27;24.30;;;18.55;;
30185;SDS011;31152;49.190;8.122;2022-08-19T00:44:07;26.88;;;19.02;;
30185;SDS011;31152;49.190;8.122;2022-08-19T00:46:41;27.02;;;20.67;;
30185;SDS011;31152;49.190;8.122;2022-08-19T00:49:20;26.13;;;19.77;;
30185;SDS011;31152;49.190;8.122;2022-08-19T00:52:11;26.17;;;19.23;;
30185;SDS011;31152;49.190;8.122;2022-08-19T00:54:41;24.35;;;18.85;;
30185;SDS011;31152;49.190;8.122;2022-08-19T00:57:10;28.75;;;20.58;;
30185;SDS011;31152;49.190;8.122;2022-08-19T00:59:43;27.50;;;20.60;;
30185;SDS011;31152;49.190;8.122;2022-08-19T01:02:28;25.13;;;20.17;;
30185;SDS011;31152;49.190;8.122;2022-08-19T01:04:55;24.13;;;19.42;;
30185;SDS011;31152;49.190;8.122;2022-08-19T01:07:22;24.63;;;19.90;;
30185;SDS011;31152;49.190;8.122;2022-08-19T01:09:49;25.92;;;19.52;;
30185;SDS011;31152;49.190;8.122;2022-08-19T01:12:19;25.77;;;19.73;;
30185;SDS011;31152;49.190;8.122;2022-08-19T01:14:46;24.52;;;19.88;;
30185;SDS011;31152;49.190;8.122;2022-08-19T01:17:13;29.38;;;19.55;;
30185;SDS011;31152;49.190;8.122;2022-08-19T01:19:42;22.60;;;19.20;;
30185;SDS011;31152;49.190;8.122;2022-08-19T01:24:58;23.40;;;19.23;;
30185;SDS011;31152;49.190;8.122;2022-08-19T01:27:25;24.20;;;19.65;;
30185;SDS011;31152;49.190;8.122;2022-08-19T01:29:58;23.65;;;19.75;;
30185;SDS011;31152;49.190;8.122;2022-08-19T01:32:25;27.52;;;19.52;;
30185;SDS011;31152;49.190;8.122;2022-08-19T01:34:59;26.00;;;19.60;;
30185;SDS011;31152;49.190;8.122;2022-08-19T01:37:27;23.90;;;20.17;;
30185;SDS011;31152;49.190;8.122;2022-08-19T01:39:56;23.75;;;19.40;;
30185;SDS011;31152;49.190;8.122;2022-08-19T01:42:23;24.42;;;19.77;;
30185;SDS011;31152;49.190;8.122;2022-08-19T01:44:56;23.40;;;20.02;;
30185;SDS011;31152;49.190;8.122;2022-08-19T01:47:27;31.05;;;20.80;;
30185;SDS011;31152;49.190;8.122;2022-08-19T01:49:54;25.85;;;20.50;;
30185;SDS011;31152;49.190;8.122;2022-08-19T01:52:24;25.05;;;20.17;;
30185;SDS011;31152;49.190;8.122;2022-08-19T01:54:50;27.63;;;20.83;;
30185;SDS011;31152;49.190;8.122;2022-08-19T01:57:17;21.65;;;19.08;;
30185;SDS011;31152;49.190;8.122;2022-08-19T01:59:44;25.13;;;19.65;;
30185;SDS011;31152;49.190;8.122;2022-08-19T02:02:11;25.67;;;19.85;;
30185;SDS011;31152;49.190;8.122;2022-08-19T02:04:38;24.60;;;19.65;;
30185;SDS011;31152;49.190;8.122;2022-08-19T02:07:06;22.35;;;19.50;;
30185;SDS011;31152;49.190;8.122;2022-08-19T02:09:34;25.13;;;20.00;;
30185;SDS011;31152;49.190;8.122;2022-08-19T02:12:01;29.60;;;20.80;;
30185;SDS011;31152;49.190;8.122;2022-08-19T02:14:29;24.98;;;20.25;;
30185;SDS011;31152;49.190;8.122;2022-08-19T02:16:56;24.33;;;19.45;;
30185;SDS011;31152;49.190;8.122;2022-08-19T02:19:25;24.60;;;20.55;;
30185;SDS011;31152;49.190;8.122;2022-08-19T02:21:52;26.42;;;20.55;;
30185;SDS011;31152;49.190;8.122;2022-08-19T02:24:19;27.00;;;21.42;;
30185;SDS011;31152;49.190;8.122;2022-08-19T02:26:46;28.67;;;20.83;;
30185;SDS011;31152;49.190;8.122;2022-08-19T02:29:13;27.85;;;20.35;;
30185;SDS011;31152;49.190;8.122;2022-08-19T02:31:42;27.42;;;20.17;;
30185;SDS011;31152;49.190;8.122;2022-08-19T02:34:08;28.77;;;21.15;;
30185;SDS011;31152;49.190;8.122;2022-08-19T02:36:35;27.00;;;19.73;;
30185;SDS011;31152;49.190;8.122;2022-08-19T02:39:07;26.60;;;20.50;;
30185;SDS011;31152;49.190;8.122;2022-08-19T02:41:35;26.58;;;20.80;;
30185;SDS011;31152;49.190;8.122;2022-08-19T02:44:04;25.67;;;20.65;;
30185;SDS011;31152;49.190;8.122;2022-08-19T02:46:51;25.35;;;20.75;;
30185;SDS011;31152;49.190;8.122;2022-08-19T02:49:18;24.13;;;20.27;;
30185;SDS011;31152;49.190;8.122;2022-08-19T02:51:46;25.30;;;19.80;;
30185;SDS011;31152;49.190;8.122;2022-08-19T02:54:13;26.85;;;21.23;;
30185;SDS011;31152;49.190;8.122;2022-08-19T02:56:41;27.30;;;21.17;;
30185;SDS011;31152;49.190;8.122;2022-08-19T02:59:08;25.13;;;20.42;;
30185;SDS011;31152;49.190;8.122;2022-08-19T03:01:39;24.33;;;20.77;;
30185;SDS011;31152;49.190;8.122;2022-08-19T03:04:08;28.50;;;22.10;;
30185;SDS011;31152;49.190;8.122;2022-08-19T03:06:40;27.80;;;20.83;;
30185;SDS011;31152;49.190;8.122;2022-08-19T03:09:10;26.63;;;20.23;;
30185;SDS011;31152;49.190;8.122;2022-08-19T03:11:38;24.17;;;20.42;;
30185;SDS011;31152;49.190;8.122;2022-08-19T03:14:05;26.38;;;21.23;;
30185;SDS011;31152;49.190;8.122;2022-08-19T03:16:43;27.42;;;20.42;;
30185;SDS011;31152;49.190;8.122;2022-08-19T03:19:15;26.50;;;21.40;;
30185;SDS011;31152;49.190;8.122;2022-08-19T03:21:47;24.77;;;19.75;;
30185;SDS011;31152;49.190;8.122;2022-08-19T03:24:14;25.58;;;21.15;;
30185;SDS011;31152;49.190;8.122;2022-08-19T03:26:42;27.08;;;21.10;;
30185;SDS011;31152;49.190;8.122;2022-08-19T03:29:10;27.23;;;21.23;;
30185;SDS011;31152;49.190;8.122;2022-08-19T03:31:38;27.95;;;22.23;;
30185;SDS011;31152;49.190;8.122;2022-08-19T03:34:22;27.05;;;21.02;;
30185;SDS011;31152;49.190;8.122;2022-08-19T03:36:56;27.33;;;21.10;;
30185;SDS011;31152;49.190;8.122;2022-08-19T03:39:24;24.88;;;20.55;;
30185;SDS011;31152;49.190;8.122;2022-08-19T03:41:53;25.00;;;19.30;;
30185;SDS011;31152;49.190;8.122;2022-08-19T03:44:46;24.33;;;20.63;;
30185;SDS011;31152;49.190;8.122;2022-08-19T03:47:12;23.90;;;19.52;;
30185;SDS011;31152;49.190;8.122;2022-08-19T03:49:45;27.52;;;20.73;;
30185;SDS011;31152;49.190;8.122;2022-08-19T03:52:12;22.80;;;19.98;;
30185;SDS011;31152;49.190;8.122;2022-08-19T03:54:40;22.90;;;19.83;;
30185;SDS011;31152;49.190;8.122;2022-08-19T03:57:06;24.27;;;20.73;;
30185;SDS011;31152;49.190;8.122;2022-08-19T03:59:35;23.88;;;20.55;;
30185;SDS011;31152;49.190;8.122;2022-08-19T04:02:06;23.80;;;20.25;;
30185;SDS011;31152;49.190;8.122;2022-08-19T04:04:40;25.67;;;19.80;;
30185;SDS011;31152;49.190;8.122;2022-08-19T04:07:09;27.27;;;19.98;;
30185;SDS011;31152;49.190;8.122;2022-08-19T04:09:41;23.55;;;18.85;;
30185;SDS011;31152;49.190;8.122;2022-08-19T04:12:11;20.75;;;18.02;;
30185;SDS011;31152;49.190;8.122;2022-08-19T04:14:38;23.55;;;18.20;;
30185;SDS011;31152;49.190;8.122;2022-08-19T04:17:05;24.35;;;18.23;;
30185;SDS011;31152;49.190;8.122;2022-08-19T04:19:35;21.85;;;18.02;;
30185;SDS011;31152;49.190;8.122;2022-08-19T04:22:03;20.05;;;17.25;;
30185;SDS011;31152;49.190;8.122;2022-08-19T04:24:30;21.60;;;16.42;;
30185;SDS011;31152;49.190;8.122;2022-08-19T04:26:59;20.75;;;15.63;;
30185;SDS011;31152;49.190;8.122;2022-08-19T04:29:27;20.45;;;15.52;;
30185;SDS011;31152;49.190;8.122;2022-08-19T04:31:55;18.98;;;14.25;;
30185;SDS011;31152;49.190;8.122;2022-08-19T04:34:23;18.60;;;14.65;;
30185;SDS011;31152;49.190;8.122;2022-08-19T04:36:53;18.55;;;14.75;;
30185;SDS011;31152;49.190;8.122;2022-08-19T04:39:23;20.65;;;15.00;;
30185;SDS011;31152;49.190;8.122;2022-08-19T04:42:11;20.73;;;14.75;;
30185;SDS011;31152;49.190;8.122;2022-08-19T04:44:56;18.92;;;15.32;;
30185;SDS011;31152;49.190;8.122;2022-08-19T04:47:25;17.77;;;14.07;;
30185;SDS011;31152;49.190;8.122;2022-08-19T04:50:11;17.88;;;14.55;;
30185;SDS011;31152;49.190;8.122;2022-08-19T04:52:38;17.65;;;14.02;;
30185;SDS011;31152;49.190;8.122;2022-08-19T04:55:09;16.40;;;13.50;;
30185;SDS011;31152;49.190;8.122;2022-08-19T04:57:36;16.90;;;13.15;;
30185;SDS011;31152;49.190;8.122;2022-08-19T05:00:07;17.30;;;14.25;;
30185;SDS011;31152;49.190;8.122;2022-08-19T05:02:34;16.98;;;13.77;;
30185;SDS011;31152;49.190;8.122;2022-08-19T05:05:02;20.40;;;13.88;;
30185;SDS011;31152;49.190;8.122;2022-08-19T05:07:29;16.67;;;13.30;;
30185;SDS011;31152;49.190;8.122;2022-08-19T05:09:56;20.52;;;13.32;;
30185;SDS011;31152;49.190;8.122;2022-08-19T05:12:24;15.90;;;14.20;;
30185;SDS011;31152;49.190;8.122;2022-08-19T05:14:57;20.38;;;13.93;;
30185;SDS011;31152;49.190;8.122;2022-08-19T05:17:25;16.65;;;13.73;;
30185;SDS011;31152;49.190;8.122;2022-08-19T05:19:55;17.20;;;13.55;;
30185;SDS011;31152;49.190;8.122;2022-08-19T05:22:42;16.33;;;14.52;;
30185;SDS011;31152;49.190;8.122;2022-08-19T05:25:11;19.35;;;14.38;;
30185;SDS011;31152;49.190;8.122;2022-08-19T05:27:40;17.58;;;14.18;;
30185;SDS011;31152;49.190;8.122;2022-08-19T05:30:09;18.92;;;14.43;;
30185;SDS011;31152;49.190;8.122;2022-08-19T05:32:37;18.85;;;14.75;;
30185;SDS011;31152;49.190;8.122;2022-08-19T05:35:04;16.10;;;13.07;;
30185;SDS011;31152;49.190;8.122;2022-08-19T05:37:32;17.75;;;13.63;;
30185;SDS011;31152;49.190;8.122;2022-08-19T05:40:01;18.15;;;13.32;;
30185;SDS011;31152;49.190;8.122;2022-08-19T05:42:30;18.98;;;12.70;;
30185;SDS011;31152;49.190;8.122;2022-08-19T05:45:02;15.68;;;12.82;;
30185;SDS011;31152;49.190;8.122;2022-08-19T05:47:29;17.15;;;13.45;;
30185;SDS011;31152;49.190;8.122;2022-08-19T05:49:56;15.10;;;12.63;;
30185;SDS011;31152;49.190;8.122;2022-08-19T05:52:30;18.50;;;12.27;;
30185;SDS011;31152;49.190;8.122;2022-08-19T05:54:57;14.45;;;11.63;;
30185;SDS011;31152;49.190;8.122;2022-08-19T05:57:23;15.85;;;12.07;;
30185;SDS011;31152;49.190;8.122;2022-08-19T05:59:51;16.30;;;11.77;;
30185;SDS011;31152;49.190;8.122;2022-08-19T06:02:24;18.00;;;12.50;;
30185;SDS011;31152;49.190;8.122;2022-08-19T06:04:52;19.00;;;13.25;;
30185;SDS011;31152;49.190;8.122;2022-08-19T06:07:19;17.95;;;12.93;;
30185;SDS011;31152;49.190;8.122;2022-08-19T06:09:45;16.45;;;12.65;;
30185;SDS011;31152;49.190;8.122;2022-08-19T06:12:26;20.23;;;13.27;;
30185;SDS011;31152;49.190;8.122;2022-08-19T06:14:57;18.02;;;13.45;;
30185;SDS011;31152;49.190;8.122;2022-08-19T06:17:26;17.05;;;13.48;;
30185;SDS011;31152;49.190;8.122;2022-08-19T06:19:53;16.90;;;13.05;;
30185;SDS011;31152;49.190;8.122;2022-08-19T06:22:20;19.02;;;12.75;;
30185;SDS011;31152;49.190;8.122;2022-08-19T06:24:46;16.88;;;12.80;;
30185;SDS011;31152;49.190;8.122;2022-08-19T06:27:13;14.85;;;12.82;;
30185;SDS011;31152;49.190;8.122;2022-08-19T06:29:42;15.65;;;13.05;;
30185;SDS011;31152;49.190;8.122;2022-08-19T06:32:08;16.02;;;13.00;;
30185;SDS011;31152;49.190;8.122;2022-08-19T06:34:35;19.00;;;12.85;;
30185;SDS011;31152;49.190;8.122;2022-08-19T06:37:02;14.75;;;12.48;;
30185;SDS011;31152;49.190;8.122;2022-08-19T06:39:33;17.52;;;12.63;;
30185;SDS011;31152;49.190;8.122;2022-08-19T06:42:05;15.35;;;12.43;;
30185;SDS011;31152;49.190;8.122;2022-08-19T06:44:39;13.63;;;11.93;;
30185;SDS011;31152;49.190;8.122;2022-08-19T06:47:08;20.65;;;13.43;;
30185;SDS011;31152;49.190;8.122;2022-08-19T06:49:48;15.85;;;12.38;;
30185;SDS011;31152;49.190;8.122;2022-08-19T06:52:15;16.80;;;12.95;;
30185;SDS011;31152;49.190;8.122;2022-08-19T06:54:45;15.30;;;12.15;;
30185;SDS011;31152;49.190;8.122;2022-08-19T06:57:22;16.70;;;11.80;;
30185;SDS011;31152;49.190;8.122;2022-08-19T06:59:49;18.88;;;12.65;;
30185;SDS011;31152;49.190;8.122;2022-08-19T07:02:16;14.95;;;12.05;;
30185;SDS011;31152;49.190;8.122;2022-08-19T07:04:48;14.93;;;10.85;;
30185;SDS011;31152;49.190;8.122;2022-08-19T07:07:18;25.60;;;12.25;;
30185;SDS011;31152;49.190;8.122;2022-08-19T07:09:49;17.52;;;12.18;;
30185;SDS011;31152;49.190;8.122;2022-08-19T07:12:25;13.90;;;11.30;;
30185;SDS011;31152;49.190;8.122;2022-08-19T07:15:01;13.13;;;10.98;;
30185;SDS011;31152;49.190;8.122;2022-08-19T07:17:30;24.42;;;12.30;;
30185;SDS011;31152;49.190;8.122;2022-08-19T07:20:01;13.93;;;11.18;;
30185;SDS011;31152;49.190;8.122;2022-08-19T07:22:37;14.50;;;10.85;;
30185;SDS011;31152;49.190;8.122;2022-08-19T07:25:05;13.60;;;10.38;;
30185;SDS011;31152;49.190;8.122;2022-08-19T07:27:36;13.30;;;10.98;;
30185;SDS011;31152;49.190;8.122;2022-08-19T07:30:05;13.45;;;10.82;;
30185;SDS011;31152;49.190;8.122;2022-08-19T07:32:37;15.98;;;10.88;;
30185;SDS011;31152;49.190;8.122;2022-08-19T07:35:06;14.88;;;10.63;;
30185;SDS011;31152;49.190;8.122;2022-08-19T07:37:36;15.20;;;10.57;;
30185;SDS011;31152;49.190;8.122;2022-08-19T07:40:05;16.13;;;10.52;;
30185;SDS011;31152;49.190;8.122;2022-08-19T07:42:35;15.95;;;10.43;;
30185;SDS011;31152;49.190;8.122;2022-08-19T07:45:02;17.90;;;10.77;;
30185;SDS011;31152;49.190;8.122;2022-08-19T07:47:30;19.90;;;11.32;;
30185;SDS011;31152;49.190;8.122;2022-08-19T07:50:17;14.82;;;10.23;;
30185;SDS011;31152;49.190;8.122;2022-08-19T07:52:46;16.23;;;10.65;;
30185;SDS011;31152;49.190;8.122;2022-08-19T07:55:20;12.27;;;9.80;;
30185;SDS011;31152;49.190;8.122;2022-08-19T07:58:08;15.55;;;10.85;;
30185;SDS011;31152;49.190;8.122;2022-08-19T08:00:38;18.70;;;10.68;;
30185;SDS011;31152;49.190;8.122;2022-08-19T08:03:06;17.77;;;10.52;;
30185;SDS011;31152;49.190;8.122;2022-08-19T08:05:35;14.32;;;10.10;;
30185;SDS011;31152;49.190;8.122;2022-08-19T08:08:21;13.18;;;10.10;;
30185;SDS011;31152;49.190;8.122;2022-08-19T08:11:14;12.25;;;9.80;;
30185;SDS011;31152;49.190;8.122;2022-08-19T08:13:45;13.43;;;9.75;;
30185;SDS011;31152;49.190;8.122;2022-08-19T08:16:26;13.63;;;9.93;;
30185;SDS011;31152;49.190;8.122;2022-08-19T08:18:57;16.77;;;9.70;;
30185;SDS011;31152;49.190;8.122;2022-08-19T08:21:26;12.30;;;10.77;;
30185;SDS011;31152;49.190;8.122;2022-08-19T08:23:53;11.90;;;10.07;;
30185;SDS011;31152;49.190;8.122;2022-08-19T08:26:22;16.10;;;9.98;;
30185;SDS011;31152;49.190;8.122;2022-08-19T08:28:53;16.58;;;10.02;;
30185;SDS011;31152;49.190;8.122;2022-08-19T08:31:20;16.38;;;10.35;;
30185;SDS011;31152;49.190;8.122;2022-08-19T08:33:48;11.25;;;9.27;;
30185;SDS011;31152;49.190;8.122;2022-08-19T08:36:15;13.43;;;9.23;;
30185;SDS011;31152;49.190;8.122;2022-08-19T08:38:42;12.60;;;8.38;;
30185;SDS011;31152;49.190;8.122;2022-08-19T08:41:24;13.93;;;8.38;;
30185;SDS011;31152;49.190;8.122;2022-08-19T08:44:17;16.65;;;9.43;;
30185;SDS011;31152;49.190;8.122;2022-08-19T08:46:49;10.68;;;8.80;;
30185;SDS011;31152;49.190;8.122;2022-08-19T08:49:31;15.48;;;9.38;;
30185;SDS011;31152;49.190;8.122;2022-08-19T08:52:07;11.20;;;8.23;;
30185;SDS011;31152;49.190;8.122;2022-08-19T08:54:43;11.15;;;9.20;;
30185;SDS011;31152;49.190;8.122;2022-08-19T08:57:27;14.43;;;9.57;;
30185;SDS011;31152;49.190;8.122;2022-08-19T09:00:07;11.07;;;9.05;;
30185;SDS011;31152;49.190;8.122;2022-08-19T09:02:43;13.52;;;9.45;;
30185;SDS011;31152;49.190;8.122;2022-08-19T09:05:16;11.50;;;8.43;;
30185;SDS011;31152;49.190;8.122;2022-08-19T09:08:03;13.95;;;8.25;;
30185;SDS011;31152;49.190;8.122;2022-08-19T09:10:43;10.43;;;6.88;;
30185;SDS011;31152;49.190;8.122;2022-08-19T09:13:35;14.40;;;7.53;;
30185;SDS011;31152;49.190;8.122;2022-08-19T09:16:25;11.85;;;7.38;;
30185;SDS011;31152;49.190;8.122;2022-08-19T09:18:55;13.02;;;8.63;;
30185;SDS011;31152;49.190;8.122;2022-08-19T09:21:27;13.55;;;7.55;;
30185;SDS011;31152;49.190;8.122;2022-08-19T09:23:58;9.48;;;7.45;;
30185;SDS011;31152;49.190;8.122;2022-08-19T09:26:28;12.52;;;8.18;;
30185;SDS011;31152;49.190;8.122;2022-08-19T09:29:16;13.77;;;8.40;;
30185;SDS011;31152;49.190;8.122;2022-08-19T09:31:43;9.02;;;8.13;;
30185;SDS011;31152;49.190;8.122;2022-08-19T09:34:14;13.45;;;7.82;;
30185;SDS011;31152;49.190;8.122;2022-08-19T09:36:47;12.65;;;7.00;;
30185;SDS011;31152;49.190;8.122;2022-08-19T09:39:20;11.68;;;6.72;;
30185;SDS011;31152;49.190;8.122;2022-08-19T09:41:47;11.48;;;6.40;;
30185;SDS011;31152;49.190;8.122;2022-08-19T09:44:16;9.48;;;6.45;;
30185;SDS011;31152;49.190;8.122;2022-08-19T09:46:47;10.23;;;6.32;;
30185;SDS011;31152;49.190;8.122;2022-08-19T09:49:14;7.82;;;6.40;;
30185;SDS011;31152;49.190;8.122;2022-08-19T09:51:44;8.77;;;6.97;;
30185;SDS011;31152;49.190;8.122;2022-08-19T09:54:17;7.30;;;6.60;;
30185;SDS011;31152;49.190;8.122;2022-08-19T09:56:50;10.70;;;7.30;;
30185;SDS011;31152;49.190;8.122;2022-08-19T09:59:18;7.53;;;6.57;;
30185;SDS011;31152;49.190;8.122;2022-08-19T10:01:45;11.27;;;6.53;;
30185;SDS011;31152;49.190;8.122;2022-08-19T10:04:12;9.82;;;7.05;;
30185;SDS011;31152;49.190;8.122;2022-08-19T10:06:47;8.55;;;6.53;;
30185;SDS011;31152;49.190;8.122;2022-08-19T10:09:19;8.73;;;6.72;;
30185;SDS011;31152;49.190;8.122;2022-08-19T10:11:54;10.37;;;7.30;;
30185;SDS011;31152;49.190;8.122;2022-08-19T10:14:20;9.57;;;7.07;;
30185;SDS011;31152;49.190;8.122;2022-08-19T10:16:49;9.70;;;6.50;;
30185;SDS011;31152;49.190;8.122;2022-08-19T10:19:22;8.68;;;6.40;;
30185;SDS011;31152;49.190;8.122;2022-08-19T10:21:51;11.70;;;6.30;;
30185;SDS011;31152;49.190;8.122;2022-08-19T10:24:19;9.77;;;7.30;;
30185;SDS011;31152;49.190;8.122;2022-08-19T10:26:46;10.02;;;7.07;;
30185;SDS011;31152;49.190;8.122;2022-08-19T10:29:25;12.75;;;7.68;;
30185;SDS011;31152;49.190;8.122;2022-08-19T10:34:29;6.20;;;5.68;;
30185;SDS011;31152;49.190;8.122;2022-08-19T10:36:59;7.95;;;5.95;;
30185;SDS011;31152;49.190;8.122;2022-08-19T10:39:28;6.60;;;5.45;;
30185;SDS011;31152;49.190;8.122;2022-08-19T10:41:58;9.02;;;5.40;;
30185;SDS011;31152;49.190;8.122;2022-08-19T10:44:24;8.70;;;5.40;;
30185;SDS011;31152;49.190;8.122;2022-08-19T10:46:58;7.95;;;5.05;;
30185;SDS011;31152;49.190;8.122;2022-08-19T10:49:29;6.38;;;5.25;;
30185;SDS011;31152;49.190;8.122;2022-08-19T10:52:16;5.95;;;4.85;;
30185;SDS011;31152;49.190;8.122;2022-08-19T10:55:04;7.00;;;4.70;;
30185;SDS011;31152;49.190;8.122;2022-08-19T10:57:55;5.88;;;5.28;;
30185;SDS011;31152;49.190;8.122;2022-08-19T11:00:27;6.65;;;5.50;;
30185;SDS011;31152;49.190;8.122;2022-08-19T11:02:57;6.30;;;5.70;;
30185;SDS011;31152;49.190;8.122;2022-08-19T11:05:29;7.13;;;6.40;;
30185;SDS011;31152;49.190;8.122;2022-08-19T11:08:05;6.60;;;5.95;;
30185;SDS011;31152;49.190;8.122;2022-08-19T11:10:51;6.60;;;6.00;;
30185;SDS011;31152;49.190;8.122;2022-08-19T11:13:27;7.35;;;6.63;;
30185;SDS011;31152;49.190;8.122;2022-08-19T11:15:56;7.13;;;6.43;;
30185;SDS011;31152;49.190;8.122;2022-08-19T11:18:34;7.00;;;6.30;;
30185;SDS011;31152;49.190;8.122;2022-08-19T11:21:37;6.43;;;5.57;;
30185;SDS011;31152;49.190;8.122;2022-08-19T11:24:01;8.45;;;5.88;;
30185;SDS011;31152;49.190;8.122;2022-08-19T11:26:32;8.13;;;6.07;;
30185;SDS011;31152;49.190;8.122;2022-08-19T11:29:00;7.32;;;5.53;;
30185;SDS011;31152;49.190;8.122;2022-08-19T11:31:28;6.40;;;5.40;;
30185;SDS011;31152;49.190;8.122;2022-08-19T11:33:57;7.18;;;5.82;;
30185;SDS011;31152;49.190;8.122;2022-08-19T11:36:29;6.80;;;5.78;;
30185;SDS011;31152;49.190;8.122;2022-08-19T11:39:00;7.30;;;5.30;;
30185;SDS011;31152;49.190;8.122;2022-08-19T11:41:27;5.65;;;5.05;;
30185;SDS011;31152;49.190;8.122;2022-08-19T11:43:57;7.95;;;5.15;;
30185;SDS011;31152;49.190;8.122;2022-08-19T11:46:24;6.00;;;5.45;;
30185;SDS011;31152;49.190;8.122;2022-08-19T11:48:52;8.35;;;4.70;;
30185;SDS011;31152;49.190;8.122;2022-08-19T11:51:20;6.07;;;4.78;;
30185;SDS011;31152;49.190;8.122;2022-08-19T11:53:48;6.00;;;5.30;;
30185;SDS011;31152;49.190;8.122;2022-08-19T11:56:16;6.47;;;4.97;;
30185;SDS011;31152;49.190;8.122;2022-08-19T11:58:44;5.28;;;4.45;;
30185;SDS011;31152;49.190;8.122;2022-08-19T12:01:12;3.75;;;3.42;;
30185;SDS011;31152;49.190;8.122;2022-08-19T12:03:43;4.93;;;2.92;;
30185;SDS011;31152;49.190;8.122;2022-08-19T12:06:13;5.55;;;2.80;;
30185;SDS011;31152;49.190;8.122;2022-08-19T12:08:42;7.68;;;3.00;;
30185;SDS011;31152;49.190;8.122;2022-08-19T12:11:11;6.10;;;3.72;;
30185;SDS011;31152;49.190;8.122;2022-08-19T12:13:39;4.68;;;3.10;;
30185;SDS011;31152;49.190;8.122;2022-08-19T12:16:09;3.47;;;2.83;;
30185;SDS011;31152;49.190;8.122;2022-08-19T12:18:39;5.97;;;2.78;;
30185;SDS011;31152;49.190;8.122;2022-08-19T12:21:15;5.60;;;2.63;;
30185;SDS011;31152;49.190;8.122;2022-08-19T12:23:44;3.25;;;2.95;;
30185;SDS011;31152;49.190;8.122;2022-08-19T12:26:11;3.20;;;2.90;;
30185;SDS011;31152;49.190;8.122;2022-08-19T12:28:38;6.40;;;3.08;;
30185;SDS011;31152;49.190;8.122;2022-08-19T12:31:05;6.78;;;3.55;;
30185;SDS011;31152;49.190;8.122;2022-08-19T12:33:32;6.60;;;4.05;;
30185;SDS011;31152;49.190;8.122;2022-08-19T12:36:04;3.42;;;3.00;;
30185;SDS011;31152;49.190;8.122;2022-08-19T12:38:33;3.75;;;3.08;;
30185;SDS011;31152;49.190;8.122;2022-08-19T12:41:00;5.03;;;3.50;;
30185;SDS011;31152;49.190;8.122;2022-08-19T12:43:33;4.47;;;2.70;;
30185;SDS011;31152;49.190;8.122;2022-08-19T12:46:04;3.88;;;3.00;;
30185;SDS011;31152;49.190;8.122;2022-08-19T12:48:36;4.32;;;3.60;;
30185;SDS011;31152;49.190;8.122;2022-08-19T12:51:09;3.60;;;3.15;;
30185;SDS011;31152;49.190;8.122;2022-08-19T12:53:38;6.13;;;3.45;;
30185;SDS011;31152;49.190;8.122;2022-08-19T12:56:06;5.45;;;3.50;;
30185;SDS011;31152;49.190;8.122;2022-08-19T12:58:37;4.55;;;3.20;;
30185;SDS011;31152;49.190;8.122;2022-08-19T13:01:08;3.63;;;3.28;;
30185;SDS011;31152;49.190;8.122;2022-08-19T13:03:40;3.97;;;3.58;;
30185;SDS011;31152;49.190;8.122;2022-08-19T13:06:08;5.05;;;3.85;;
30185;SDS011;31152;49.190;8.122;2022-08-19T13:08:38;4.00;;;3.60;;
30185;SDS011;31152;49.190;8.122;2022-08-19T13:11:12;4.55;;;3.58;;
30185;SDS011;31152;49.190;8.122;2022-08-19T13:13:44;4.80;;;3.28;;
30185;SDS011;31152;49.190;8.122;2022-08-19T13:16:14;3.83;;;3.20;;
30185;SDS011;31152;49.190;8.122;2022-08-19T13:18:42;6.50;;;3.67;;
30185;SDS011;31152;49.190;8.122;2022-08-19T13:21:13;3.50;;;3.20;;
30185;SDS011;31152;49.190;8.122;2022-08-19T13:23:51;10.43;;;3.70;;
30185;SDS011;31152;49.190;8.122;2022-08-19T13:26:22;5.03;;;3.60;;
30185;SDS011;31152;49.190;8.122;2022-08-19T13:28:51;6.75;;;4.30;;
30185;SDS011;31152;49.190;8.122;2022-08-19T13:31:38;7.68;;;3.53;;
30185;SDS011;31152;49.190;8.122;2022-08-19T13:34:27;4.45;;;3.58;;
30185;SDS011;31152;49.190;8.122;2022-08-19T13:37:00;3.92;;;3.63;;
30185;SDS011;31152;49.190;8.122;2022-08-19T13:39:29;4.80;;;3.33;;
30185;SDS011;31152;49.190;8.122;2022-08-19T13:41:58;6.80;;;3.60;;
30185;SDS011;31152;49.190;8.122;2022-08-19T13:44:27;5.35;;;3.53;;
30185;SDS011;31152;49.190;8.122;2022-08-19T13:47:01;7.30;;;3.67;;
30185;SDS011;31152;49.190;8.122;2022-08-19T13:49:36;7.30;;;3.28;;
30185;SDS011;31152;49.190;8.122;2022-08-19T13:52:03;4.72;;;3.60;;
30185;SDS011;31152;49.190;8.122;2022-08-19T13:54:30;5.05;;;3.70;;
30185;SDS011;31152;49.190;8.122;2022-08-19T13:56:59;7.15;;;3.42;;
30185;SDS011;31152;49.190;8.122;2022-08-19T13:59:26;5.47;;;3.38;;
30185;SDS011;31152;49.190;8.122;2022-08-19T14:01:59;3.58;;;3.13;;
30185;SDS011;31152;49.190;8.122;2022-08-19T14:04:26;4.22;;;3.70;;
30185;SDS011;31152;49.190;8.122;2022-08-19T14:06:53;5.07;;;3.80;;
30185;SDS011;31152;49.190;8.122;2022-08-19T14:09:20;7.20;;;4.40;;
30185;SDS011;31152;49.190;8.122;2022-08-19T14:11:47;5.43;;;4.05;;
30185;SDS011;31152;49.190;8.122;2022-08-19T14:14:16;6.55;;;3.85;;
30185;SDS011;31152;49.190;8.122;2022-08-19T14:16:43;4.32;;;3.80;;
30185;SDS011;31152;49.190;8.122;2022-08-19T14:19:12;5.82;;;4.30;;
30185;SDS011;31152;49.190;8.122;2022-08-19T14:21:41;9.98;;;3.78;;
30185;SDS011;31152;49.190;8.122;2022-08-19T14:24:08;8.70;;;3.80;;
30185;SDS011;31152;49.190;8.122;2022-08-19T14:26:34;4.32;;;3.55;;
30185;SDS011;31152;49.190;8.122;2022-08-19T14:29:01;7.45;;;3.90;;
30185;SDS011;31152;49.190;8.122;2022-08-19T14:31:28;11.93;;;4.43;;
30185;SDS011;31152;49.190;8.122;2022-08-19T14:33:56;5.65;;;3.70;;
30185;SDS011;31152;49.190;8.122;2022-08-19T14:36:22;7.10;;;3.95;;
30185;SDS011;31152;49.190;8.122;2022-08-19T14:38:50;6.30;;;3.75;;
30185;SDS011;31152;49.190;8.122;2022-08-19T14:41:18;6.32;;;3.95;;
30185;SDS011;31152;49.190;8.122;2022-08-19T14:43:48;6.75;;;4.15;;
30185;SDS011;31152;49.190;8.122;2022-08-19T14:46:20;9.75;;;4.07;;
30185;SDS011;31152;49.190;8.122;2022-08-19T14:48:50;25.58;;;4.93;;
30185;SDS011;31152;49.190;8.122;2022-08-19T14:51:18;7.15;;;4.25;;
30185;SDS011;31152;49.190;8.122;2022-08-19T14:53:45;8.23;;;3.45;;
30185;SDS011;31152;49.190;8.122;2022-08-19T14:56:16;6.60;;;3.80;;
30185;SDS011;31152;49.190;8.122;2022-08-19T14:58:46;5.53;;;3.80;;